createdAt,value
2019-04-04T00:00:42.627Z,0.00
2019-04-04T00:01:42.623Z,0.00
2019-04-04T00:02:42.605Z,0.00
2019-04-04T00:03:42.595Z,0.00
2019-04-04T00:04:42.608Z,0.00
2019-04-04T00:05:42.576Z,0.00
2019-04-04T00:06:42.559Z,0.00
2019-04-04T00:07:42.549Z,0.00
2019-04-04T00:08:42.553Z,0.00
2019-04-04T00:09:42.528Z,0.00
2019-04-04T00:10:42.532Z,0.00
2019-04-04T00:11:42.504Z,0.00
2019-04-04T00:12:42.492Z,0.00
2019-04-04T00:13:42.637Z,0.00
2019-04-04T00:14:43.834Z,0.00
2019-04-04T00:15:45.346Z,0.00
2019-04-04T00:16:42.447Z,0.00
2019-04-04T00:17:42.440Z,0.00
2019-04-04T00:18:42.428Z,0.00
2019-04-04T00:19:42.413Z,0.00
2019-04-04T00:20:42.428Z,0.00
2019-04-04T00:21:42.391Z,0.00
2019-04-04T00:22:42.383Z,0.00
2019-04-04T00:23:42.370Z,0.00
2019-04-04T00:24:42.357Z,0.00
2019-04-04T00:25:42.344Z,0.00
2019-04-04T00:26:42.646Z,0.00
2019-04-04T00:27:43.995Z,0.00
2019-04-04T00:28:42.322Z,0.00
2019-04-04T00:29:42.300Z,0.00
2019-04-04T00:30:42.291Z,0.00
2019-04-04T00:31:42.304Z,0.00
2019-04-04T00:32:42.265Z,0.00
2019-04-04T00:33:42.257Z,0.00
2019-04-04T00:34:42.250Z,0.00
2019-04-04T00:35:42.236Z,0.00
2019-04-04T00:36:42.222Z,0.00
2019-04-04T00:37:42.227Z,0.00
2019-04-04T00:38:42.197Z,0.00
2019-04-04T00:39:42.186Z,0.00
2019-04-04T00:40:42.528Z,0.00
2019-04-04T00:41:42.974Z,0.00
2019-04-04T00:42:42.180Z,0.00
2019-04-04T00:43:42.139Z,0.00
2019-04-04T00:44:42.132Z,0.00
2019-04-04T00:45:42.129Z,0.00
2019-04-04T00:46:42.106Z,0.00
2019-04-04T00:47:42.095Z,0.00
2019-04-04T00:48:42.097Z,0.00
2019-04-04T00:49:42.074Z,0.00
2019-04-04T00:50:42.063Z,0.00
2019-04-04T00:51:42.056Z,0.00
2019-04-04T00:52:42.038Z,0.00
2019-04-04T00:53:43.007Z,0.00
2019-04-04T00:54:44.643Z,0.00
2019-04-04T00:55:42.010Z,0.00
2019-04-04T00:56:41.992Z,0.00
2019-04-04T00:57:41.979Z,0.00
2019-04-04T00:58:41.971Z,0.00
2019-04-04T00:59:41.974Z,0.00
2019-04-04T01:00:41.946Z,0.00
2019-04-04T01:01:41.936Z,0.00
2019-04-04T01:02:41.925Z,0.00
2019-04-04T01:03:41.914Z,0.00
2019-04-04T01:04:41.941Z,0.00
2019-04-04T01:05:41.891Z,0.00
2019-04-04T01:06:41.898Z,0.00
2019-04-04T01:07:41.868Z,0.00
2019-04-04T01:08:41.857Z,0.00
2019-04-04T01:09:41.847Z,0.00
2019-04-04T01:10:41.854Z,0.00
2019-04-04T01:11:41.824Z,0.00
2019-04-04T01:12:41.817Z,0.00
2019-04-04T01:13:41.800Z,0.00
2019-04-04T01:14:41.808Z,0.00
2019-04-04T01:15:41.794Z,0.00
2019-04-04T01:16:41.768Z,0.00
2019-04-04T01:17:41.757Z,0.00
2019-04-04T01:18:41.744Z,0.00
2019-04-04T01:19:41.733Z,0.00
2019-04-04T01:20:41.757Z,0.00
2019-04-04T01:21:41.711Z,0.00
2019-04-04T01:22:41.699Z,0.00
2019-04-04T01:23:41.690Z,0.00
2019-04-04T01:24:41.677Z,0.00
2019-04-04T01:25:41.663Z,0.00
2019-04-04T01:26:41.677Z,0.00
2019-04-04T01:27:41.644Z,0.00
2019-04-04T01:28:41.635Z,0.00
2019-04-04T01:29:41.617Z,0.00
2019-04-04T01:30:43.465Z,0.00
2019-04-04T01:31:41.623Z,0.00
2019-04-04T01:32:41.585Z,0.00
2019-04-04T01:33:41.572Z,0.00
2019-04-04T01:34:41.562Z,0.00
2019-04-04T01:35:41.549Z,0.00
2019-04-04T01:36:41.543Z,0.00
2019-04-04T01:37:41.546Z,0.00
2019-04-04T01:38:41.515Z,0.00
2019-04-04T01:39:41.505Z,0.00
2019-04-04T01:40:41.492Z,0.00
2019-04-04T01:41:41.484Z,0.00
2019-04-04T01:42:41.485Z,0.00
2019-04-04T01:43:41.469Z,0.00
2019-04-04T01:44:42.178Z,0.00
2019-04-04T01:45:43.731Z,0.00
2019-04-04T01:46:41.422Z,0.00
2019-04-04T01:47:41.442Z,0.00
2019-04-04T01:48:41.398Z,0.00
2019-04-04T01:49:41.392Z,0.00
2019-04-04T01:50:41.378Z,0.00
2019-04-04T01:51:41.365Z,0.00
2019-04-04T01:52:41.351Z,0.00
2019-04-04T01:53:41.359Z,0.00
2019-04-04T01:54:41.332Z,0.00
2019-04-04T01:55:41.319Z,0.00
2019-04-04T01:56:41.310Z,0.00
2019-04-04T01:57:41.295Z,0.00
2019-04-04T01:58:41.927Z,0.00
2019-04-04T01:59:41.947Z,0.00
2019-04-04T02:00:41.263Z,0.00
2019-04-04T02:01:41.249Z,0.00
2019-04-04T02:02:41.239Z,0.00
2019-04-04T02:03:41.226Z,0.00
2019-04-04T02:04:41.233Z,0.00
2019-04-04T02:05:41.204Z,0.00
2019-04-04T02:06:41.195Z,0.00
2019-04-04T02:07:41.187Z,0.00
2019-04-04T02:08:41.167Z,0.00
2019-04-04T02:09:43.408Z,0.00
2019-04-04T02:10:41.148Z,0.00
2019-04-04T02:11:41.136Z,0.00
2019-04-04T02:12:41.125Z,0.00
2019-04-04T02:13:41.543Z,0.00
2019-04-04T02:14:43.134Z,0.00
2019-04-04T02:15:42.702Z,0.00
2019-04-04T02:16:41.133Z,0.00
2019-04-04T02:17:41.067Z,0.00
2019-04-04T02:18:41.058Z,0.00
2019-04-04T02:19:41.045Z,0.00
2019-04-04T02:20:41.047Z,0.00
2019-04-04T02:21:41.025Z,0.00
2019-04-04T02:22:41.023Z,0.00
2019-04-04T02:23:40.997Z,0.00
2019-04-04T02:24:40.986Z,0.00
2019-04-04T02:25:40.988Z,0.00
2019-04-04T02:26:40.959Z,0.00
2019-04-04T02:27:40.977Z,0.00
2019-04-04T02:28:40.938Z,0.00
2019-04-04T02:29:41.867Z,0.00
2019-04-04T02:30:40.925Z,0.00
2019-04-04T02:31:40.908Z,0.00
2019-04-04T02:32:40.894Z,0.00
2019-04-04T02:33:40.901Z,0.00
2019-04-04T02:34:40.874Z,0.00
2019-04-04T02:35:43.672Z,0.00
2019-04-04T02:36:40.848Z,0.00
2019-04-04T02:37:40.839Z,0.00
2019-04-04T02:38:40.844Z,0.00
2019-04-04T02:39:40.814Z,0.00
2019-04-04T02:40:42.083Z,0.00
2019-04-04T02:41:40.791Z,0.00
2019-04-04T02:42:40.806Z,0.00
2019-04-04T02:43:40.777Z,0.00
2019-04-04T02:44:40.758Z,0.00
2019-04-04T02:45:40.745Z,0.00
2019-04-04T02:46:44.101Z,0.00
2019-04-04T02:47:40.728Z,0.00
2019-04-04T02:48:40.740Z,0.00
2019-04-04T02:49:40.704Z,0.00
2019-04-04T02:50:40.694Z,0.00
2019-04-04T02:51:41.494Z,0.00
2019-04-04T02:52:40.666Z,0.00
2019-04-04T02:53:40.685Z,0.00
2019-04-04T02:54:40.646Z,0.00
2019-04-04T02:55:40.652Z,0.00
2019-04-04T02:56:40.621Z,0.00
2019-04-04T02:57:42.208Z,0.00
2019-04-04T02:58:40.599Z,0.00
2019-04-04T02:59:40.606Z,0.00
2019-04-04T03:00:40.582Z,0.00
2019-04-04T03:01:40.575Z,0.00
2019-04-04T03:02:40.558Z,0.00
2019-04-04T03:03:42.010Z,0.00
2019-04-04T03:04:40.561Z,0.00
2019-04-04T03:05:40.521Z,0.00
2019-04-04T03:06:40.510Z,0.00
2019-04-04T03:07:40.500Z,0.00
2019-04-04T03:08:40.487Z,0.00
2019-04-04T03:09:43.351Z,0.00
2019-04-04T03:10:40.483Z,0.00
2019-04-04T03:11:40.453Z,0.00
2019-04-04T03:12:40.440Z,0.00
2019-04-04T03:13:40.447Z,0.00
2019-04-04T03:14:40.416Z,0.00
2019-04-04T03:15:41.567Z,0.00
2019-04-04T03:16:40.400Z,0.00
2019-04-04T03:17:40.385Z,0.00
2019-04-04T03:18:40.373Z,0.00
2019-04-04T03:19:40.804Z,0.00
2019-04-04T03:20:40.376Z,0.00
2019-04-04T03:21:40.343Z,0.00
2019-04-04T03:22:40.326Z,0.00
2019-04-04T03:23:40.317Z,0.00
2019-04-04T03:24:44.502Z,0.00
2019-04-04T03:25:40.296Z,0.00
2019-04-04T03:26:40.297Z,0.00
2019-04-04T03:27:40.274Z,0.00
2019-04-04T03:28:40.261Z,0.00
2019-04-04T03:29:40.251Z,0.00
2019-04-04T03:30:40.238Z,0.00
2019-04-04T03:31:40.265Z,0.00
2019-04-04T03:32:40.246Z,0.00
2019-04-04T03:33:40.215Z,0.00
2019-04-04T03:34:47.451Z,0.00
2019-04-04T03:35:41.181Z,0.00
2019-04-04T03:36:40.170Z,0.00
2019-04-04T03:37:40.976Z,0.00
2019-04-04T03:38:40.149Z,0.00
2019-04-04T03:39:40.137Z,0.00
2019-04-04T03:40:42.035Z,0.00
2019-04-04T03:41:40.136Z,0.00
2019-04-04T03:42:43.889Z,0.00
2019-04-04T03:43:40.094Z,0.00
2019-04-04T03:44:40.079Z,0.00
2019-04-04T03:45:40.070Z,0.00
2019-04-04T03:46:40.068Z,0.00
2019-04-04T03:47:43.267Z,0.00
2019-04-04T03:48:40.034Z,0.00
2019-04-04T03:49:40.022Z,0.00
2019-04-04T03:50:49.936Z,0.00
2019-04-04T03:51:48.470Z,0.00
2019-04-04T03:52:43.276Z,0.00
2019-04-04T03:53:39.998Z,0.00
2019-04-04T03:54:39.973Z,0.00
2019-04-04T03:55:39.955Z,0.00
2019-04-04T03:56:39.949Z,0.00
2019-04-04T03:57:39.933Z,0.00
2019-04-04T03:58:39.949Z,0.00
2019-04-04T03:59:39.910Z,0.00
2019-04-04T04:00:40.625Z,0.00
2019-04-04T04:01:39.890Z,0.00
2019-04-04T04:02:39.880Z,0.00
2019-04-04T04:03:39.866Z,0.00
2019-04-04T04:04:39.876Z,0.00
2019-04-04T04:05:40.853Z,0.00
2019-04-04T04:06:42.124Z,0.00
2019-04-04T04:07:39.833Z,0.00
2019-04-04T04:08:39.811Z,0.00
2019-04-04T04:09:39.827Z,0.00
2019-04-04T04:10:39.785Z,0.00
2019-04-04T04:11:39.800Z,0.00
2019-04-04T04:12:42.643Z,0.00
2019-04-04T04:13:39.755Z,0.00
2019-04-04T04:14:39.747Z,0.00
2019-04-04T04:15:39.748Z,0.00
2019-04-04T04:16:39.718Z,0.00
2019-04-04T04:17:39.708Z,0.00
2019-04-04T04:18:39.695Z,0.00
2019-04-04T04:19:39.685Z,0.00
2019-04-04T04:20:39.691Z,0.00
2019-04-04T04:21:42.736Z,0.00
2019-04-04T04:22:39.649Z,0.00
2019-04-04T04:23:39.638Z,0.00
2019-04-04T04:24:39.630Z,0.00
2019-04-04T04:25:39.646Z,0.00
2019-04-04T04:26:42.018Z,0.00
2019-04-04T04:27:39.593Z,0.00
2019-04-04T04:28:39.582Z,0.00
2019-04-04T04:29:39.575Z,0.00
2019-04-04T04:30:40.738Z,0.00
2019-04-04T04:31:39.571Z,0.00
2019-04-04T04:32:39.535Z,0.00
2019-04-04T04:33:39.522Z,0.00
2019-04-04T04:34:39.511Z,0.00
2019-04-04T04:35:42.008Z,0.00
2019-04-04T04:36:39.521Z,0.00
2019-04-04T04:37:39.532Z,0.00
2019-04-04T04:38:39.469Z,0.00
2019-04-04T04:39:41.405Z,0.00
2019-04-04T04:40:39.445Z,0.00
2019-04-04T04:41:39.433Z,0.00
2019-04-04T04:42:39.438Z,0.00
2019-04-04T04:43:39.417Z,0.00
2019-04-04T04:44:39.399Z,0.00
2019-04-04T04:45:43.859Z,0.00
2019-04-04T04:46:39.379Z,0.00
2019-04-04T04:47:39.393Z,0.00
2019-04-04T04:48:39.355Z,0.00
2019-04-04T04:49:39.352Z,0.00
2019-04-04T04:50:40.511Z,0.00
2019-04-04T04:51:43.204Z,0.00
2019-04-04T04:52:39.319Z,0.00
2019-04-04T04:53:39.314Z,0.00
2019-04-04T04:54:39.295Z,0.00
2019-04-04T04:55:39.279Z,0.00
2019-04-04T04:56:39.262Z,0.00
2019-04-04T04:57:39.254Z,0.00
2019-04-04T04:58:41.780Z,0.00
2019-04-04T04:59:39.228Z,0.00
2019-04-04T05:00:39.218Z,0.00
2019-04-04T05:01:40.577Z,0.00
2019-04-04T05:02:39.194Z,0.00
2019-04-04T05:03:39.200Z,0.00
2019-04-04T05:04:39.987Z,5.62
2019-04-04T05:05:39.170Z,5.62
2019-04-04T05:06:39.157Z,5.62
2019-04-04T05:07:39.245Z,5.62
2019-04-04T05:08:41.050Z,5.62
2019-04-04T05:09:39.115Z,5.62
2019-04-04T05:10:39.106Z,5.62
2019-04-04T05:11:39.093Z,5.62
2019-04-04T05:12:39.081Z,5.62
2019-04-04T05:13:39.070Z,5.62
2019-04-04T05:14:39.078Z,5.62
2019-04-04T05:15:39.048Z,5.62
2019-04-04T05:16:39.035Z,5.62
2019-04-04T05:17:41.689Z,5.62
2019-04-04T05:18:39.023Z,5.62
2019-04-04T05:19:39.020Z,5.62
2019-04-04T05:20:38.993Z,5.62
2019-04-04T05:21:38.980Z,5.62
2019-04-04T05:22:40.040Z,11.25
2019-04-04T05:23:38.959Z,5.62
2019-04-04T05:24:38.975Z,11.25
2019-04-04T05:25:51.707Z,11.25
2019-04-04T05:26:39.930Z,11.25
2019-04-04T05:27:38.912Z,11.25
2019-04-04T05:28:41.829Z,11.25
2019-04-04T05:29:38.891Z,16.88
2019-04-04T05:30:38.911Z,16.88
2019-04-04T05:31:38.931Z,16.88
2019-04-04T05:32:38.874Z,16.88
2019-04-04T05:33:38.851Z,16.88
2019-04-04T05:34:38.834Z,16.88
2019-04-04T05:35:38.824Z,16.88
2019-04-04T05:36:38.868Z,16.88
2019-04-04T05:37:39.027Z,16.88
2019-04-04T05:38:38.799Z,22.50
2019-04-04T05:39:38.778Z,22.50
2019-04-04T05:40:38.767Z,22.50
2019-04-04T05:41:38.790Z,22.50
2019-04-04T05:42:38.771Z,28.12
2019-04-04T05:43:38.774Z,28.12
2019-04-04T05:44:41.218Z,33.75
2019-04-04T05:45:38.714Z,39.38
2019-04-04T05:46:38.713Z,39.38
2019-04-04T05:47:38.719Z,33.75
2019-04-04T05:48:38.679Z,33.75
2019-04-04T05:49:38.888Z,33.75
2019-04-04T05:50:38.661Z,33.75
2019-04-04T05:51:38.650Z,33.75
2019-04-04T05:52:38.673Z,33.75
2019-04-04T05:53:38.638Z,33.75
2019-04-04T05:54:39.195Z,33.75
2019-04-04T05:55:39.800Z,33.75
2019-04-04T05:56:38.585Z,33.75
2019-04-04T05:57:38.602Z,39.38
2019-04-04T05:58:38.593Z,39.38
2019-04-04T05:59:38.559Z,39.38
2019-04-04T06:00:38.542Z,39.38
2019-04-04T06:01:38.533Z,39.38
2019-04-04T06:02:38.521Z,33.75
2019-04-04T06:03:38.507Z,39.38
2019-04-04T06:04:38.520Z,33.75
2019-04-04T06:05:38.485Z,39.38
2019-04-04T06:06:38.474Z,39.38
2019-04-04T06:07:38.492Z,39.38
2019-04-04T06:08:42.471Z,33.75
2019-04-04T06:09:38.467Z,33.75
2019-04-04T06:10:38.428Z,39.38
2019-04-04T06:11:38.417Z,33.75
2019-04-04T06:12:38.410Z,33.75
2019-04-04T06:13:38.395Z,39.38
2019-04-04T06:14:38.385Z,45.00
2019-04-04T06:15:38.389Z,45.00
2019-04-04T06:16:38.362Z,45.00
2019-04-04T06:17:39.128Z,45.00
2019-04-04T06:18:38.338Z,45.00
2019-04-04T06:19:38.331Z,50.62
2019-04-04T06:20:38.347Z,50.62
2019-04-04T06:21:38.305Z,56.25
2019-04-04T06:22:38.294Z,56.25
2019-04-04T06:23:38.282Z,56.25
2019-04-04T06:24:38.269Z,50.62
2019-04-04T06:25:38.263Z,45.00
2019-04-04T06:26:38.825Z,39.38
2019-04-04T06:27:40.323Z,33.75
2019-04-04T06:28:38.225Z,33.75
2019-04-04T06:29:38.218Z,33.75
2019-04-04T06:30:43.511Z,33.75
2019-04-04T06:31:39.217Z,33.75
2019-04-04T06:32:38.988Z,39.38
2019-04-04T06:33:38.168Z,45.00
2019-04-04T06:34:38.156Z,45.00
2019-04-04T06:35:39.788Z,39.38
2019-04-04T06:36:38.139Z,39.38
2019-04-04T06:37:38.760Z,39.38
2019-04-04T06:38:38.114Z,33.75
2019-04-04T06:39:38.101Z,28.12
2019-04-04T06:40:38.092Z,39.38
2019-04-04T06:41:38.078Z,45.00
2019-04-04T06:42:38.090Z,45.00
2019-04-04T06:43:38.073Z,39.38
2019-04-04T06:44:38.044Z,39.38
2019-04-04T06:45:38.033Z,28.12
2019-04-04T06:46:38.024Z,28.12
2019-04-04T06:47:38.012Z,33.75
2019-04-04T06:48:38.031Z,39.38
2019-04-04T06:49:37.990Z,45.00
2019-04-04T06:50:39.987Z,33.75
2019-04-04T06:51:37.967Z,33.75
2019-04-04T06:52:37.960Z,28.12
2019-04-04T06:53:37.942Z,33.75
2019-04-04T06:54:37.948Z,45.00
2019-04-04T06:55:40.063Z,56.25
2019-04-04T06:56:37.911Z,50.62
2019-04-04T06:57:37.895Z,39.38
2019-04-04T06:58:39.981Z,33.75
2019-04-04T06:59:37.937Z,28.12
2019-04-04T07:00:37.861Z,39.38
2019-04-04T07:01:37.850Z,39.38
2019-04-04T07:02:37.838Z,39.38
2019-04-04T07:03:37.829Z,39.38
2019-04-04T07:04:37.816Z,39.38
2019-04-04T07:05:38.908Z,56.25
2019-04-04T07:06:37.795Z,67.50
2019-04-04T07:07:37.781Z,67.50
2019-04-04T07:08:37.773Z,67.50
2019-04-04T07:09:37.759Z,67.50
2019-04-04T07:10:37.776Z,56.25
2019-04-04T07:11:37.740Z,50.62
2019-04-04T07:12:38.693Z,56.25
2019-04-04T07:13:42.632Z,56.25
2019-04-04T07:14:45.458Z,56.25
2019-04-04T07:15:46.579Z,56.25
2019-04-04T07:16:38.686Z,56.25
2019-04-04T07:17:40.097Z,61.88
2019-04-04T07:18:37.661Z,61.88
2019-04-04T07:19:37.647Z,67.50
2019-04-04T07:20:37.635Z,73.12
2019-04-04T07:21:37.640Z,73.12
2019-04-04T07:22:37.612Z,67.50
2019-04-04T07:23:37.601Z,67.50
2019-04-04T07:24:37.589Z,73.12
2019-04-04T07:25:38.107Z,84.38
2019-04-04T07:26:37.596Z,90.00
2019-04-04T07:27:37.555Z,90.00
2019-04-04T07:28:37.545Z,95.62
2019-04-04T07:29:37.531Z,95.62
2019-04-04T07:30:37.520Z,90.00
2019-04-04T07:31:38.359Z,84.38
2019-04-04T07:32:40.694Z,84.38
2019-04-04T07:33:37.485Z,84.38
2019-04-04T07:34:37.476Z,84.38
2019-04-04T07:35:37.465Z,84.38
2019-04-04T07:36:37.451Z,90.00
2019-04-04T07:37:37.439Z,90.00
2019-04-04T07:38:37.452Z,90.00
2019-04-04T07:39:37.431Z,106.88
2019-04-04T07:40:37.496Z,129.38
2019-04-04T07:41:39.952Z,140.62
2019-04-04T07:42:40.039Z,112.50
2019-04-04T07:43:39.407Z,112.50
2019-04-04T07:44:37.360Z,123.75
2019-04-04T07:45:37.355Z,135.00
2019-04-04T07:46:40.772Z,140.62
2019-04-04T07:47:37.326Z,129.38
2019-04-04T07:48:37.317Z,112.50
2019-04-04T07:49:40.087Z,101.25
2019-04-04T07:50:37.295Z,101.25
2019-04-04T07:51:37.280Z,101.25
2019-04-04T07:52:37.270Z,101.25
2019-04-04T07:53:37.259Z,106.88
2019-04-04T07:54:38.508Z,112.50
2019-04-04T07:55:37.233Z,118.12
2019-04-04T07:56:37.227Z,123.75
2019-04-04T07:57:37.213Z,123.75
2019-04-04T07:58:37.198Z,135.00
2019-04-04T07:59:37.188Z,157.50
2019-04-04T08:00:37.192Z,230.62
2019-04-04T08:01:37.164Z,326.25
2019-04-04T08:02:37.155Z,264.38
2019-04-04T08:03:37.141Z,247.50
2019-04-04T08:04:37.130Z,281.25
2019-04-04T08:05:37.147Z,483.75
2019-04-04T08:06:37.110Z,393.75
2019-04-04T08:07:37.095Z,213.75
2019-04-04T08:08:37.086Z,196.88
2019-04-04T08:09:37.079Z,180.00
2019-04-04T08:10:37.062Z,180.00
2019-04-04T08:11:37.071Z,185.62
2019-04-04T08:12:37.041Z,219.38
2019-04-04T08:13:37.028Z,230.62
2019-04-04T08:14:37.017Z,264.38
2019-04-04T08:15:37.005Z,264.38
2019-04-04T08:16:37.021Z,270.00
2019-04-04T08:17:36.984Z,286.88
2019-04-04T08:18:36.972Z,292.50
2019-04-04T08:19:36.965Z,258.75
2019-04-04T08:20:36.948Z,264.38
2019-04-04T08:21:36.936Z,270.00
2019-04-04T08:22:39.596Z,270.00
2019-04-04T08:23:36.913Z,365.62
2019-04-04T08:24:36.903Z,298.12
2019-04-04T08:25:36.894Z,433.12
2019-04-04T08:26:36.881Z,483.75
2019-04-04T08:27:36.871Z,315.00
2019-04-04T08:28:36.876Z,410.62
2019-04-04T08:29:36.847Z,523.12
2019-04-04T08:30:36.836Z,230.62
2019-04-04T08:31:36.826Z,286.88
2019-04-04T08:32:37.521Z,253.12
2019-04-04T08:33:36.828Z,326.25
2019-04-04T08:34:36.791Z,258.75
2019-04-04T08:35:36.779Z,421.88
2019-04-04T08:36:36.770Z,596.25
2019-04-04T08:37:36.757Z,573.75
2019-04-04T08:38:36.746Z,556.88
2019-04-04T08:39:36.760Z,545.62
2019-04-04T08:40:36.722Z,545.62
2019-04-04T08:41:36.710Z,545.62
2019-04-04T08:42:36.698Z,551.25
2019-04-04T08:43:36.690Z,545.62
2019-04-04T08:44:36.677Z,534.38
2019-04-04T08:45:36.682Z,534.38
2019-04-04T08:46:36.655Z,534.38
2019-04-04T08:47:36.647Z,534.38
2019-04-04T08:48:36.643Z,540.00
2019-04-04T08:49:36.622Z,545.62
2019-04-04T08:50:36.637Z,540.00
2019-04-04T08:51:36.599Z,540.00
2019-04-04T08:52:36.590Z,540.00
2019-04-04T08:53:40.263Z,540.00
2019-04-04T08:54:36.568Z,540.00
2019-04-04T08:55:36.556Z,540.00
2019-04-04T08:56:36.563Z,523.12
2019-04-04T08:57:36.540Z,517.50
2019-04-04T08:58:36.521Z,523.12
2019-04-04T08:59:36.514Z,523.12
2019-04-04T09:00:36.523Z,523.12
2019-04-04T09:01:36.515Z,528.75
2019-04-04T09:02:36.479Z,534.38
2019-04-04T09:03:36.464Z,534.38
2019-04-04T09:04:36.455Z,534.38
2019-04-04T09:05:36.441Z,500.62
2019-04-04T09:06:36.431Z,478.12
2019-04-04T09:07:36.446Z,466.88
2019-04-04T09:08:36.407Z,506.25
2019-04-04T09:09:36.405Z,517.50
2019-04-04T09:10:36.387Z,545.62
2019-04-04T09:11:36.376Z,528.75
2019-04-04T09:12:36.363Z,523.12
2019-04-04T09:13:36.372Z,523.12
2019-04-04T09:14:36.341Z,528.75
2019-04-04T09:15:36.331Z,528.75
2019-04-04T09:16:36.317Z,523.12
2019-04-04T09:17:36.303Z,489.38
2019-04-04T09:18:36.321Z,511.88
2019-04-04T09:19:36.290Z,500.62
2019-04-04T09:20:36.273Z,511.88
2019-04-04T09:21:36.259Z,517.50
2019-04-04T09:22:36.249Z,517.50
2019-04-04T09:23:36.265Z,534.38
2019-04-04T09:24:36.226Z,534.38
2019-04-04T09:25:36.215Z,540.00
2019-04-04T09:26:36.203Z,545.62
2019-04-04T09:27:36.192Z,562.50
2019-04-04T09:28:36.185Z,551.25
2019-04-04T09:29:36.198Z,551.25
2019-04-04T09:30:36.156Z,551.25
2019-04-04T09:31:36.145Z,556.88
2019-04-04T09:32:36.136Z,562.50
2019-04-04T09:33:36.123Z,568.12
2019-04-04T09:34:36.111Z,562.50
2019-04-04T09:35:36.119Z,579.38
2019-04-04T09:36:36.091Z,579.38
2019-04-04T09:37:36.079Z,601.88
2019-04-04T09:38:36.065Z,596.25
2019-04-04T09:39:36.055Z,613.12
2019-04-04T09:40:36.072Z,607.50
2019-04-04T09:41:36.031Z,624.38
2019-04-04T09:42:36.024Z,618.75
2019-04-04T09:43:36.008Z,618.75
2019-04-04T09:44:35.996Z,630.00
2019-04-04T09:45:35.986Z,630.00
2019-04-04T09:46:35.993Z,641.25
2019-04-04T09:47:35.964Z,652.50
2019-04-04T09:48:35.950Z,641.25
2019-04-04T09:49:35.938Z,658.12
2019-04-04T09:50:35.927Z,663.75
2019-04-04T09:51:35.953Z,663.75
2019-04-04T09:52:35.908Z,663.75
2019-04-04T09:53:52.133Z,663.75
2019-04-04T09:54:36.884Z,658.12
2019-04-04T09:55:35.874Z,658.12
2019-04-04T09:56:35.859Z,652.50
2019-04-04T09:57:35.878Z,652.50
2019-04-04T09:58:35.838Z,652.50
2019-04-04T09:59:35.826Z,663.75
2019-04-04T10:00:35.816Z,658.12
2019-04-04T10:01:35.804Z,663.75
2019-04-04T10:02:35.791Z,663.75
2019-04-04T10:03:35.798Z,663.75
2019-04-04T10:04:35.770Z,669.38
2019-04-04T10:05:35.762Z,669.38
2019-04-04T10:06:35.746Z,669.38
2019-04-04T10:07:35.735Z,675.00
2019-04-04T10:08:38.683Z,675.00
2019-04-04T10:09:35.717Z,669.38
2019-04-04T10:10:35.703Z,669.38
2019-04-04T10:11:35.692Z,686.25
2019-04-04T10:12:35.679Z,736.88
2019-04-04T10:13:35.696Z,860.62
2019-04-04T10:14:35.658Z,1209.38
2019-04-04T10:15:35.647Z,1569.38
2019-04-04T10:16:35.635Z,1614.38
2019-04-04T10:17:35.635Z,1676.25
2019-04-04T10:18:35.613Z,1805.62
2019-04-04T10:19:35.634Z,1845.00
2019-04-04T10:20:35.591Z,1867.50
2019-04-04T10:21:35.581Z,1873.12
2019-04-04T10:22:35.569Z,1873.12
2019-04-04T10:23:35.558Z,1980.00
2019-04-04T10:24:35.548Z,1985.62
2019-04-04T10:25:35.553Z,2081.25
2019-04-04T10:26:35.525Z,2053.12
2019-04-04T10:27:35.514Z,2081.25
2019-04-04T10:28:35.507Z,2171.25
2019-04-04T10:29:35.495Z,2227.50
2019-04-04T10:30:35.569Z,2311.88
2019-04-04T10:31:35.471Z,2306.25
2019-04-04T10:32:35.461Z,2216.25
2019-04-04T10:33:35.451Z,2233.12
2019-04-04T10:34:35.441Z,2334.38
2019-04-04T10:35:35.464Z,2255.62
2019-04-04T10:36:35.419Z,2233.12
2019-04-04T10:37:35.412Z,2317.50
2019-04-04T10:38:35.399Z,2323.12
2019-04-04T10:39:35.391Z,2216.25
2019-04-04T10:40:35.379Z,2238.75
2019-04-04T10:41:35.401Z,2463.75
2019-04-04T10:42:35.354Z,2475.00
2019-04-04T10:43:35.342Z,2514.38
2019-04-04T10:44:37.011Z,2604.38
2019-04-04T10:45:35.323Z,2542.50
2019-04-04T10:46:35.314Z,2520.00
2019-04-04T10:47:35.339Z,2475.00
2019-04-04T10:48:35.293Z,2508.75
2019-04-04T10:49:35.278Z,2626.88
2019-04-04T10:50:35.268Z,2666.25
2019-04-04T10:51:35.254Z,2767.50
2019-04-04T10:52:35.246Z,2773.12
2019-04-04T10:53:35.254Z,2700.00
2019-04-04T10:54:35.223Z,2700.00
2019-04-04T10:55:35.211Z,2570.62
2019-04-04T10:56:35.203Z,2750.62
2019-04-04T10:57:35.190Z,2874.38
2019-04-04T10:58:35.195Z,2835.00
2019-04-04T10:59:35.167Z,2761.88
2019-04-04T11:00:35.164Z,2818.12
2019-04-04T11:01:35.146Z,2818.12
2019-04-04T11:02:35.135Z,2683.12
2019-04-04T11:03:35.150Z,2638.12
2019-04-04T11:04:35.113Z,2694.38
2019-04-04T11:05:36.075Z,2716.88
2019-04-04T11:06:35.091Z,2728.12
2019-04-04T11:07:35.079Z,2700.00
2019-04-04T11:08:35.073Z,2745.00
2019-04-04T11:09:41.724Z,2604.38
2019-04-04T11:10:36.047Z,2722.50
2019-04-04T11:11:35.035Z,2761.88
2019-04-04T11:12:35.022Z,2671.88
2019-04-04T11:13:35.021Z,2531.25
2019-04-04T11:14:35.000Z,2536.88
2019-04-04T11:15:35.005Z,2480.62
2019-04-04T11:16:34.977Z,2666.25
2019-04-04T11:17:34.975Z,2677.50
2019-04-04T11:18:34.956Z,2806.88
2019-04-04T11:19:34.950Z,2896.88
2019-04-04T11:20:34.967Z,2756.25
2019-04-04T11:21:34.922Z,2739.38
2019-04-04T11:22:34.914Z,2705.62
2019-04-04T11:23:34.905Z,2671.88
2019-04-04T11:24:34.891Z,2587.50
2019-04-04T11:25:34.888Z,2700.00
2019-04-04T11:26:34.899Z,2559.38
2019-04-04T11:27:34.860Z,1648.12
2019-04-04T11:28:34.846Z,489.38
2019-04-04T11:29:34.838Z,281.25
2019-04-04T11:30:34.829Z,264.38
2019-04-04T11:31:34.815Z,253.12
2019-04-04T11:32:34.817Z,247.50
2019-04-04T11:33:34.794Z,236.25
2019-04-04T11:34:34.782Z,225.00
2019-04-04T11:35:34.769Z,225.00
2019-04-04T11:36:34.759Z,225.00
2019-04-04T11:37:34.775Z,213.75
2019-04-04T11:38:34.738Z,208.12
2019-04-04T11:39:34.746Z,208.12
2019-04-04T11:40:34.719Z,208.12
2019-04-04T11:41:34.704Z,208.12
2019-04-04T11:42:34.692Z,213.75
2019-04-04T11:43:35.098Z,213.75
2019-04-04T11:44:34.671Z,213.75
2019-04-04T11:45:34.660Z,208.12
2019-04-04T11:46:34.661Z,208.12
2019-04-04T11:47:34.640Z,208.12
2019-04-04T11:48:34.628Z,208.12
2019-04-04T11:49:34.654Z,208.12
2019-04-04T11:50:34.603Z,202.50
2019-04-04T11:51:34.597Z,202.50
2019-04-04T11:52:34.579Z,202.50
2019-04-04T11:53:34.570Z,202.50
2019-04-04T11:54:34.560Z,196.88
2019-04-04T11:55:34.567Z,196.88
2019-04-04T11:56:34.535Z,196.88
2019-04-04T11:57:34.523Z,191.25
2019-04-04T11:58:34.514Z,191.25
2019-04-04T11:59:34.507Z,191.25
2019-04-04T12:00:34.517Z,191.25
2019-04-04T12:01:34.477Z,191.25
2019-04-04T12:02:34.468Z,185.62
2019-04-04T12:03:34.455Z,185.62
2019-04-04T12:04:34.443Z,174.38
2019-04-04T12:05:34.431Z,180.00
2019-04-04T12:06:34.456Z,180.00
2019-04-04T12:07:34.408Z,196.88
2019-04-04T12:08:34.401Z,185.62
2019-04-04T12:09:34.386Z,180.00
2019-04-04T12:10:34.378Z,174.38
2019-04-04T12:11:34.361Z,174.38
2019-04-04T12:12:34.368Z,174.38
2019-04-04T12:13:34.338Z,174.38
2019-04-04T12:14:34.329Z,174.38
2019-04-04T12:15:34.317Z,168.75
2019-04-04T12:16:34.357Z,168.75
2019-04-04T12:17:34.327Z,168.75
2019-04-04T12:18:34.285Z,174.38
2019-04-04T12:19:34.274Z,180.00
2019-04-04T12:20:34.264Z,180.00
2019-04-04T12:21:34.254Z,180.00
2019-04-04T12:22:34.237Z,180.00
2019-04-04T12:23:34.260Z,180.00
2019-04-04T12:24:34.215Z,180.00
2019-04-04T12:25:34.206Z,180.00
2019-04-04T12:26:34.192Z,180.00
2019-04-04T12:27:34.181Z,168.75
2019-04-04T12:28:34.176Z,168.75
2019-04-04T12:29:34.186Z,168.75
2019-04-04T12:30:34.148Z,163.12
2019-04-04T12:31:34.135Z,157.50
2019-04-04T12:32:34.128Z,157.50
2019-04-04T12:33:34.117Z,157.50
2019-04-04T12:34:34.101Z,151.88
2019-04-04T12:35:34.110Z,151.88
2019-04-04T12:36:34.080Z,146.25
2019-04-04T12:37:34.075Z,146.25
2019-04-04T12:38:34.055Z,146.25
2019-04-04T12:39:34.044Z,140.62
2019-04-04T12:40:34.063Z,140.62
2019-04-04T12:41:34.021Z,140.62
2019-04-04T12:42:34.011Z,140.62
2019-04-04T12:43:33.999Z,140.62
2019-04-04T12:44:33.987Z,140.62
2019-04-04T12:45:33.979Z,140.62
2019-04-04T12:46:34.000Z,135.00
2019-04-04T12:47:33.958Z,135.00
2019-04-04T12:48:33.943Z,129.38
2019-04-04T12:49:33.930Z,135.00
2019-04-04T12:50:33.920Z,135.00